SWA2039 KPHX-KLAX
Flight info
| Callsign | SWA2039 |
|---|---|
| Flight time | 1h 1m |
| Altitude | 36000 |
| Route | KEENS3 WLVRN ESTWD HLYWD1 |
| Aircraft | B738/M-SDE2E3FGHIRWXY/LB1 |
Departure
| Time | 2026-04-22 03:26 |
|---|---|
| Airport | Phoenix Sky Harbor International Airport (KPHX) |
Arrival
| Time | 2026-04-22 04:27 |
|---|---|
| Airport | Los Angeles International Airport (KLAX) |
| Time | Latitude | Longitude | Altitude | Speed | Heading |
|---|---|---|---|---|---|
| 2026-04-22 03:05 | 33.43393 | -111.99990 | 1130 ft | 0 kts | 85° |
| 2026-04-22 03:19 | 33.43393 | -111.99995 | 1130 ft | 2 kts | 85° |
| 2026-04-22 03:19 | 33.43392 | -112.00017 | 1131 ft | 3 kts | 96° |
| 2026-04-22 03:19 | 33.43395 | -112.00034 | 1133 ft | 3 kts | 151° |
| 2026-04-22 03:20 | 33.43401 | -112.00038 | 1133 ft | 0 kts | 179° |
| 2026-04-22 03:22 | 33.43380 | -112.00038 | 1134 ft | 9 kts | 180° |
| 2026-04-22 03:22 | 33.43289 | -112.00008 | 1133 ft | 15 kts | 117° |
| 2026-04-22 03:22 | 33.43284 | -111.99837 | 1131 ft | 26 kts | 90° |
| 2026-04-22 03:23 | 33.43284 | -111.99583 | 1130 ft | 35 kts | 90° |
| 2026-04-22 03:23 | 33.43275 | -111.99372 | 1131 ft | 17 kts | 114° |
| 2026-04-22 03:23 | 33.43197 | -111.99350 | 1134 ft | 0 kts | 176° |
| 2026-04-22 03:24 | 33.43137 | -111.99352 | 1137 ft | 15 kts | 198° |
| 2026-04-22 03:25 | 33.43104 | -111.99418 | 1134 ft | 1 kts | 269° |
| 2026-04-22 03:25 | 33.43104 | -111.99419 | 1134 ft | 0 kts | 269° |
| 2026-04-22 03:26 | 33.43104 | -111.99508 | 1134 ft | 43 kts | 270° |
| 2026-04-22 03:26 | 33.43104 | -112.00229 | 1133 ft | 127 kts | 270° |
| 2026-04-22 03:26 | 33.43109 | -112.01513 | 1496 ft | 170 kts | 269° |
| 2026-04-22 03:26 | 33.43072 | -112.03001 | 2286 ft | 193 kts | 265° |
| 2026-04-22 03:27 | 33.43016 | -112.04697 | 2900 ft | 215 kts | 265° |
| 2026-04-22 03:27 | 33.42942 | -112.06615 | 3274 ft | 243 kts | 264° |
| 2026-04-22 03:27 | 33.42530 | -112.08583 | 4066 ft | 251 kts | 249° |
| 2026-04-22 03:27 | 33.41898 | -112.10574 | 4914 ft | 260 kts | 253° |
| 2026-04-22 03:28 | 33.41882 | -112.12717 | 5882 ft | 265 kts | 282° |
| 2026-04-22 03:28 | 33.42425 | -112.14847 | 6737 ft | 272 kts | 284° |
| 2026-04-22 03:28 | 33.43006 | -112.17054 | 7478 ft | 281 kts | 284° |
| 2026-04-22 03:28 | 33.43596 | -112.19300 | 8393 ft | 283 kts | 284° |
| 2026-04-22 03:29 | 33.44191 | -112.21563 | 9341 ft | 287 kts | 283° |
| 2026-04-22 03:29 | 33.44791 | -112.23872 | 10187 ft | 292 kts | 282° |
| 2026-04-22 03:29 | 33.45406 | -112.26274 | 10606 ft | 314 kts | 283° |
| 2026-04-22 03:29 | 33.46068 | -112.28890 | 10840 ft | 339 kts | 283° |
| 2026-04-22 03:30 | 33.46765 | -112.31639 | 11455 ft | 348 kts | 283° |
| 2026-04-22 03:30 | 33.47464 | -112.34393 | 12335 ft | 350 kts | 283° |
| 2026-04-22 03:30 | 33.48173 | -112.37186 | 13182 ft | 352 kts | 283° |
| 2026-04-22 03:30 | 33.48885 | -112.40003 | 13992 ft | 354 kts | 283° |
| 2026-04-22 03:31 | 33.49598 | -112.42836 | 14731 ft | 357 kts | 283° |
| 2026-04-22 03:31 | 33.50317 | -112.45698 | 15473 ft | 360 kts | 283° |
| 2026-04-22 03:31 | 33.51038 | -112.48574 | 16243 ft | 362 kts | 283° |
| 2026-04-22 03:31 | 33.51765 | -112.51480 | 17007 ft | 364 kts | 283° |
| 2026-04-22 03:32 | 33.52496 | -112.54403 | 17735 ft | 367 kts | 283° |
| 2026-04-22 03:32 | 33.53231 | -112.57349 | 18414 ft | 370 kts | 283° |
| 2026-04-22 03:32 | 33.53973 | -112.60324 | 19035 ft | 373 kts | 283° |
| 2026-04-22 03:32 | 33.54715 | -112.63308 | 19679 ft | 375 kts | 283° |
| 2026-04-22 03:33 | 33.55465 | -112.66323 | 20304 ft | 378 kts | 283° |
| 2026-04-22 03:33 | 33.56217 | -112.69353 | 20933 ft | 380 kts | 283° |
| 2026-04-22 03:33 | 33.56974 | -112.72405 | 21568 ft | 382 kts | 283° |
| 2026-04-22 03:33 | 33.57723 | -112.75427 | 22169 ft | 384 kts | 282° |
| 2026-04-22 03:34 | 33.58489 | -112.78521 | 22759 ft | 387 kts | 282° |
| 2026-04-22 03:34 | 33.59255 | -112.81621 | 23358 ft | 389 kts | 282° |
| 2026-04-22 03:34 | 33.60026 | -112.84741 | 23843 ft | 391 kts | 282° |
| 2026-04-22 03:34 | 33.60801 | -112.87886 | 24313 ft | 394 kts | 282° |
| 2026-04-22 03:35 | 33.61579 | -112.91044 | 24769 ft | 396 kts | 282° |
| 2026-04-22 03:35 | 33.62361 | -112.94224 | 25235 ft | 399 kts | 282° |
| 2026-04-22 03:35 | 33.63146 | -112.97420 | 25688 ft | 401 kts | 282° |
| 2026-04-22 03:35 | 33.63936 | -113.00638 | 26136 ft | 403 kts | 282° |
| 2026-04-22 03:36 | 33.64729 | -113.03873 | 26580 ft | 405 kts | 282° |
| 2026-04-22 03:36 | 33.65525 | -113.07127 | 27006 ft | 407 kts | 282° |
| 2026-04-22 03:36 | 33.66326 | -113.10402 | 27412 ft | 410 kts | 281° |
| 2026-04-22 03:36 | 33.67130 | -113.13694 | 27836 ft | 412 kts | 281° |
| 2026-04-22 03:37 | 33.67937 | -113.17003 | 28237 ft | 414 kts | 281° |
| 2026-04-22 03:37 | 33.68737 | -113.20290 | 28617 ft | 416 kts | 281° |
| 2026-04-22 03:37 | 33.69550 | -113.23634 | 29003 ft | 419 kts | 281° |
| 2026-04-22 03:37 | 33.70369 | -113.27006 | 29384 ft | 421 kts | 281° |
| 2026-04-22 03:38 | 33.71190 | -113.30387 | 29755 ft | 423 kts | 281° |
| 2026-04-22 03:38 | 33.72013 | -113.33783 | 30152 ft | 423 kts | 281° |
| 2026-04-22 03:38 | 33.72834 | -113.37169 | 30659 ft | 420 kts | 281° |
| 2026-04-22 03:38 | 33.73645 | -113.40515 | 31216 ft | 415 kts | 281° |
| 2026-04-22 03:39 | 33.74450 | -113.43843 | 31902 ft | 412 kts | 281° |
| 2026-04-22 03:39 | 33.75245 | -113.47136 | 32247 ft | 409 kts | 281° |
| 2026-04-22 03:39 | 33.75767 | -113.49307 | 32547 ft | 408 kts | 281° |
| 2026-04-22 03:39 | 33.76812 | -113.53654 | 33058 ft | 407 kts | 281° |
| 2026-04-22 03:40 | 33.77342 | -113.55864 | 33321 ft | 407 kts | 281° |
| 2026-04-22 03:40 | 33.78123 | -113.59125 | 33759 ft | 405 kts | 281° |
| 2026-04-22 03:40 | 33.78901 | -113.62370 | 34155 ft | 403 kts | 281° |
| 2026-04-22 03:40 | 33.79674 | -113.65603 | 34454 ft | 403 kts | 281° |
| 2026-04-22 03:41 | 33.80438 | -113.68804 | 34707 ft | 404 kts | 281° |
| 2026-04-22 03:41 | 33.81211 | -113.72047 | 34997 ft | 404 kts | 281° |
| 2026-04-22 03:41 | 33.81984 | -113.75291 | 35346 ft | 403 kts | 280° |
| 2026-04-22 03:41 | 33.82754 | -113.78517 | 35795 ft | 399 kts | 280° |
| 2026-04-22 03:42 | 33.84290 | -113.84991 | 35919 ft | 405 kts | 280° |
| 2026-04-22 03:42 | 33.85836 | -113.91512 | 35903 ft | 402 kts | 280° |
| 2026-04-22 03:43 | 33.87355 | -113.97931 | 35908 ft | 398 kts | 280° |
| 2026-04-22 03:43 | 33.88865 | -114.04339 | 35909 ft | 398 kts | 280° |
| 2026-04-22 03:44 | 33.90373 | -114.10753 | 35909 ft | 398 kts | 279° |
| 2026-04-22 03:44 | 33.91608 | -114.17170 | 35902 ft | 395 kts | 276° |
| 2026-04-22 03:45 | 33.92660 | -114.23649 | 35905 ft | 394 kts | 275° |
| 2026-04-22 03:45 | 33.93720 | -114.30129 | 35912 ft | 394 kts | 276° |
| 2026-04-22 03:46 | 33.94803 | -114.36619 | 35900 ft | 395 kts | 276° |
| 2026-04-22 03:46 | 33.95892 | -114.43096 | 35903 ft | 395 kts | 275° |
| 2026-04-22 03:47 | 33.96981 | -114.49584 | 35906 ft | 394 kts | 275° |
| 2026-04-22 03:47 | 33.98065 | -114.56065 | 35900 ft | 394 kts | 275° |
| 2026-04-22 03:48 | 33.99142 | -114.62528 | 35894 ft | 392 kts | 275° |
| 2026-04-22 03:48 | 34.00211 | -114.68963 | 35893 ft | 392 kts | 275° |
| 2026-04-22 03:49 | 34.01277 | -114.75403 | 35891 ft | 391 kts | 275° |
| 2026-04-22 03:49 | 34.02330 | -114.81787 | 35896 ft | 390 kts | 275° |
| 2026-04-22 03:50 | 34.03386 | -114.88210 | 35889 ft | 390 kts | 275° |
| 2026-04-22 03:50 | 34.04434 | -114.94611 | 35882 ft | 389 kts | 275° |
| 2026-04-22 03:51 | 34.05481 | -115.01019 | 35895 ft | 389 kts | 275° |
| 2026-04-22 03:51 | 34.06525 | -115.07494 | 35912 ft | 399 kts | 275° |
| 2026-04-22 03:52 | 34.07583 | -115.14143 | 35900 ft | 412 kts | 274° |
| 2026-04-22 03:52 | 34.08670 | -115.20994 | 35906 ft | 419 kts | 275° |
| 2026-04-22 03:53 | 34.09764 | -115.27928 | 35909 ft | 419 kts | 275° |
| 2026-04-22 03:53 | 34.10853 | -115.34803 | 35905 ft | 415 kts | 275° |
| 2026-04-22 03:54 | 34.11980 | -115.41505 | 35889 ft | 394 kts | 275° |
| 2026-04-22 03:54 | 34.13043 | -115.47898 | 35902 ft | 385 kts | 274° |
| 2026-04-22 03:55 | 34.14058 | -115.54235 | 35912 ft | 387 kts | 274° |
| 2026-04-22 03:55 | 34.15073 | -115.60645 | 35904 ft | 390 kts | 274° |
| 2026-04-22 03:56 | 34.16088 | -115.67066 | 35923 ft | 384 kts | 274° |
| 2026-04-22 03:56 | 34.16321 | -115.70201 | 35906 ft | 369 kts | 262° |
| 2026-04-22 03:56 | 34.16055 | -115.73247 | 35916 ft | 362 kts | 259° |
| 2026-04-22 03:57 | 34.15417 | -115.79286 | 35947 ft | 369 kts | 259° |
| 2026-04-22 03:57 | 34.14788 | -115.85515 | 35958 ft | 374 kts | 259° |
| 2026-04-22 03:58 | 34.14180 | -115.91758 | 35988 ft | 374 kts | 260° |
| 2026-04-22 03:58 | 34.13588 | -115.97859 | 35923 ft | 353 kts | 259° |
| 2026-04-22 03:59 | 34.13304 | -116.00772 | 35668 ft | 346 kts | 259° |
| 2026-04-22 03:59 | 34.13023 | -116.03642 | 35298 ft | 343 kts | 259° |
| 2026-04-22 03:59 | 34.12742 | -116.06497 | 34853 ft | 342 kts | 259° |
| 2026-04-22 03:59 | 34.12464 | -116.09311 | 34424 ft | 341 kts | 259° |
| 2026-04-22 04:00 | 34.12185 | -116.12141 | 34011 ft | 339 kts | 259° |
| 2026-04-22 04:00 | 34.11907 | -116.14958 | 33592 ft | 336 kts | 259° |
| 2026-04-22 04:00 | 34.11631 | -116.17750 | 33160 ft | 334 kts | 259° |
| 2026-04-22 04:00 | 34.11355 | -116.20531 | 32705 ft | 332 kts | 259° |
| 2026-04-22 04:01 | 34.11082 | -116.23285 | 32277 ft | 331 kts | 259° |
| 2026-04-22 04:01 | 34.10807 | -116.26040 | 31759 ft | 329 kts | 259° |
| 2026-04-22 04:01 | 34.10531 | -116.28797 | 31128 ft | 334 kts | 259° |
| 2026-04-22 04:01 | 34.10248 | -116.31600 | 30603 ft | 337 kts | 260° |
| 2026-04-22 04:02 | 34.09955 | -116.34354 | 30274 ft | 334 kts | 259° |
| 2026-04-22 04:02 | 34.09657 | -116.37114 | 29964 ft | 330 kts | 259° |
| 2026-04-22 04:02 | 34.09362 | -116.39854 | 29538 ft | 328 kts | 259° |
| 2026-04-22 04:02 | 34.09069 | -116.42570 | 29092 ft | 327 kts | 259° |
| 2026-04-22 04:03 | 34.08776 | -116.45301 | 28669 ft | 325 kts | 259° |
| 2026-04-22 04:03 | 34.08486 | -116.47994 | 28274 ft | 322 kts | 259° |
| 2026-04-22 04:03 | 34.08199 | -116.50666 | 27877 ft | 321 kts | 259° |
| 2026-04-22 04:03 | 34.07912 | -116.53334 | 27471 ft | 319 kts | 260° |
| 2026-04-22 04:04 | 34.07625 | -116.55982 | 27067 ft | 318 kts | 260° |
| 2026-04-22 04:04 | 34.07338 | -116.58619 | 26670 ft | 316 kts | 261° |
| 2026-04-22 04:04 | 34.07076 | -116.61244 | 26309 ft | 314 kts | 262° |
| 2026-04-22 04:04 | 34.06836 | -116.63856 | 25966 ft | 312 kts | 262° |
| 2026-04-22 04:05 | 34.06601 | -116.66451 | 25618 ft | 310 kts | 262° |
| 2026-04-22 04:05 | 34.06367 | -116.69027 | 25256 ft | 308 kts | 262° |
| 2026-04-22 04:05 | 34.06131 | -116.71594 | 24886 ft | 307 kts | 262° |
| 2026-04-22 04:05 | 34.05895 | -116.74139 | 24533 ft | 305 kts | 262° |
| 2026-04-22 04:06 | 34.05658 | -116.76678 | 24202 ft | 304 kts | 262° |
| 2026-04-22 04:06 | 34.05425 | -116.79171 | 23859 ft | 302 kts | 262° |
| 2026-04-22 04:06 | 34.05189 | -116.81687 | 23523 ft | 301 kts | 262° |
| 2026-04-22 04:06 | 34.04954 | -116.84189 | 23142 ft | 299 kts | 262° |
| 2026-04-22 04:07 | 34.04719 | -116.86673 | 22790 ft | 298 kts | 262° |
| 2026-04-22 04:07 | 34.04485 | -116.89138 | 22619 ft | 293 kts | 262° |
| 2026-04-22 04:07 | 34.04197 | -116.91540 | 22329 ft | 289 kts | 260° |
| 2026-04-22 04:07 | 34.03875 | -116.93931 | 21931 ft | 289 kts | 260° |
| 2026-04-22 04:08 | 34.03554 | -116.96324 | 21557 ft | 288 kts | 260° |
| 2026-04-22 04:08 | 34.03239 | -116.98710 | 21203 ft | 287 kts | 260° |
| 2026-04-22 04:08 | 34.02929 | -117.01083 | 20875 ft | 286 kts | 260° |
| 2026-04-22 04:08 | 34.02623 | -117.03442 | 20551 ft | 284 kts | 260° |
| 2026-04-22 04:09 | 34.02338 | -117.05792 | 20216 ft | 283 kts | 261° |
| 2026-04-22 04:09 | 34.02063 | -117.08140 | 19877 ft | 282 kts | 261° |
| 2026-04-22 04:09 | 34.01790 | -117.10472 | 19547 ft | 281 kts | 261° |
| 2026-04-22 04:09 | 34.01516 | -117.12796 | 19227 ft | 280 kts | 260° |
| 2026-04-22 04:10 | 34.01246 | -117.15088 | 18916 ft | 279 kts | 260° |
| 2026-04-22 04:10 | 34.00972 | -117.17397 | 18595 ft | 278 kts | 260° |
| 2026-04-22 04:10 | 34.00697 | -117.19701 | 18274 ft | 277 kts | 260° |
| 2026-04-22 04:10 | 34.00423 | -117.21995 | 17870 ft | 276 kts | 260° |
| 2026-04-22 04:11 | 34.00151 | -117.24274 | 17514 ft | 272 kts | 260° |
| 2026-04-22 04:11 | 33.99879 | -117.26543 | 17072 ft | 274 kts | 259° |
| 2026-04-22 04:11 | 33.99607 | -117.28811 | 16775 ft | 272 kts | 259° |
| 2026-04-22 04:11 | 33.99335 | -117.31069 | 16440 ft | 271 kts | 260° |
| 2026-04-22 04:12 | 33.99074 | -117.33282 | 16180 ft | 269 kts | 260° |
| 2026-04-22 04:12 | 33.98810 | -117.35540 | 15854 ft | 268 kts | 260° |
| 2026-04-22 04:12 | 33.98553 | -117.37731 | 15531 ft | 267 kts | 260° |
| 2026-04-22 04:12 | 33.98293 | -117.39948 | 15216 ft | 266 kts | 260° |
| 2026-04-22 04:13 | 33.98033 | -117.42152 | 14885 ft | 266 kts | 259° |
| 2026-04-22 04:13 | 33.97773 | -117.44354 | 14574 ft | 264 kts | 259° |
| 2026-04-22 04:13 | 33.97514 | -117.46546 | 14279 ft | 263 kts | 259° |
| 2026-04-22 04:13 | 33.97341 | -117.48743 | 14005 ft | 263 kts | 269° |
| 2026-04-22 04:14 | 33.97679 | -117.50932 | 13594 ft | 270 kts | 280° |
| 2026-04-22 04:14 | 33.98202 | -117.53115 | 13188 ft | 272 kts | 281° |
| 2026-04-22 04:14 | 33.98732 | -117.55282 | 12760 ft | 274 kts | 281° |
| 2026-04-22 04:14 | 33.99271 | -117.57497 | 12332 ft | 275 kts | 281° |
| 2026-04-22 04:15 | 33.99798 | -117.59683 | 11905 ft | 268 kts | 281° |
| 2026-04-22 04:15 | 34.00308 | -117.61821 | 11498 ft | 263 kts | 280° |
| 2026-04-22 04:15 | 34.00810 | -117.63944 | 11115 ft | 265 kts | 280° |
| 2026-04-22 04:15 | 34.01314 | -117.66090 | 10717 ft | 267 kts | 280° |
| 2026-04-22 04:16 | 34.01823 | -117.68256 | 10317 ft | 270 kts | 280° |
| 2026-04-22 04:16 | 34.02424 | -117.72621 | 9882 ft | 251 kts | 263° |
| 2026-04-22 04:16 | 34.02159 | -117.74727 | 9393 ft | 254 kts | 257° |
| 2026-04-22 04:17 | 34.01861 | -117.76836 | 9032 ft | 255 kts | 259° |
| 2026-04-22 04:17 | 34.01635 | -117.78941 | 8722 ft | 251 kts | 261° |
| 2026-04-22 04:17 | 34.01422 | -117.80999 | 8428 ft | 244 kts | 261° |
| 2026-04-22 04:17 | 34.01204 | -117.83034 | 8150 ft | 246 kts | 261° |
| 2026-04-22 04:18 | 34.00986 | -117.85061 | 7881 ft | 247 kts | 261° |
| 2026-04-22 04:18 | 34.00766 | -117.87116 | 7600 ft | 246 kts | 261° |
| 2026-04-22 04:18 | 34.00548 | -117.89156 | 7323 ft | 245 kts | 261° |
| 2026-04-22 04:18 | 34.00330 | -117.91205 | 7040 ft | 245 kts | 261° |
| 2026-04-22 04:19 | 34.00113 | -117.93241 | 6766 ft | 245 kts | 262° |
| 2026-04-22 04:19 | 33.99896 | -117.95282 | 6487 ft | 246 kts | 262° |
| 2026-04-22 04:19 | 33.99679 | -117.97328 | 6191 ft | 246 kts | 262° |
| 2026-04-22 04:19 | 33.99467 | -117.99333 | 5950 ft | 237 kts | 262° |
| 2026-04-22 04:20 | 33.99267 | -118.01221 | 5830 ft | 217 kts | 262° |
| 2026-04-22 04:20 | 33.99086 | -118.02941 | 5707 ft | 198 kts | 262° |
| 2026-04-22 04:20 | 33.98919 | -118.04516 | 5585 ft | 182 kts | 262° |
| 2026-04-22 04:20 | 33.98766 | -118.05971 | 5438 ft | 169 kts | 262° |
| 2026-04-22 04:21 | 33.98622 | -118.07340 | 5238 ft | 161 kts | 263° |
| 2026-04-22 04:21 | 33.98482 | -118.08669 | 4997 ft | 159 kts | 263° |
| 2026-04-22 04:21 | 33.98343 | -118.09988 | 4705 ft | 159 kts | 263° |
| 2026-04-22 04:21 | 33.98205 | -118.11303 | 4456 ft | 157 kts | 264° |
| 2026-04-22 04:22 | 33.98068 | -118.12613 | 4184 ft | 158 kts | 263° |
| 2026-04-22 04:22 | 33.97925 | -118.13975 | 3940 ft | 172 kts | 264° |
| 2026-04-22 04:22 | 33.97772 | -118.15445 | 3736 ft | 179 kts | 264° |
| 2026-04-22 04:22 | 33.97615 | -118.16946 | 3551 ft | 180 kts | 264° |
| 2026-04-22 04:23 | 33.97462 | -118.18408 | 3327 ft | 178 kts | 264° |
| 2026-04-22 04:23 | 33.97309 | -118.19873 | 3153 ft | 176 kts | 264° |
| 2026-04-22 04:23 | 33.97157 | -118.21333 | 2968 ft | 174 kts | 264° |
| 2026-04-22 04:23 | 33.97007 | -118.22774 | 2774 ft | 170 kts | 264° |
| 2026-04-22 04:24 | 33.96866 | -118.24131 | 2588 ft | 157 kts | 264° |
| 2026-04-22 04:24 | 33.96734 | -118.25404 | 2435 ft | 151 kts | 265° |
| 2026-04-22 04:24 | 33.96604 | -118.26657 | 2293 ft | 153 kts | 264° |
| 2026-04-22 04:24 | 33.96471 | -118.27946 | 2162 ft | 157 kts | 265° |
| 2026-04-22 04:25 | 33.96337 | -118.29237 | 1947 ft | 152 kts | 264° |
| 2026-04-22 04:25 | 33.96207 | -118.30495 | 1743 ft | 150 kts | 265° |
| 2026-04-22 04:25 | 33.96080 | -118.31721 | 1544 ft | 151 kts | 265° |
| 2026-04-22 04:25 | 33.95950 | -118.32984 | 1371 ft | 153 kts | 264° |
| 2026-04-22 04:26 | 33.95819 | -118.34259 | 1143 ft | 154 kts | 263° |
| 2026-04-22 04:26 | 33.95689 | -118.35519 | 956 ft | 149 kts | 263° |
| 2026-04-22 04:26 | 33.95562 | -118.36752 | 766 ft | 149 kts | 263° |
| 2026-04-22 04:26 | 33.95476 | -118.37591 | 631 ft | 155 kts | 263° |
| 2026-04-22 04:27 | 33.95302 | -118.39286 | 334 ft | 147 kts | 263° |
| 2026-04-22 04:27 | 33.95177 | -118.40485 | 168 ft | 145 kts | 262° |
| 2026-04-22 04:27 | 33.95091 | -118.41297 | 121 ft | 131 kts | 262° |
| 2026-04-22 04:27 | 33.95053 | -118.41719 | 123 ft | 6 kts | 250° |
| 2026-04-22 04:28 | 33.94986 | -118.41853 | 122 ft | 27 kts | 235° |
| 2026-04-22 04:28 | 33.94971 | -118.41875 | 124 ft | 0 kts | 231° |
| 2026-04-22 04:31 | 33.94931 | -118.41941 | 122 ft | 23 kts | 234° |
| 2026-04-22 04:31 | 33.94814 | -118.42125 | 121 ft | 28 kts | 233° |
| 2026-04-22 04:31 | 33.94730 | -118.42236 | 123 ft | 16 kts | 194° |
| 2026-04-22 04:31 | 33.94693 | -118.42150 | 122 ft | 15 kts | 83° |
| 2026-04-22 04:32 | 33.94707 | -118.42000 | 125 ft | 21 kts | 83° |
| 2026-04-22 04:32 | 33.94730 | -118.41784 | 122 ft | 29 kts | 83° |
| 2026-04-22 04:32 | 33.94753 | -118.41559 | 125 ft | 26 kts | 83° |
| 2026-04-22 04:32 | 33.94787 | -118.41354 | 125 ft | 24 kts | 77° |
| 2026-04-22 04:33 | 33.94807 | -118.41160 | 122 ft | 23 kts | 82° |
| 2026-04-22 04:33 | 33.94826 | -118.40980 | 125 ft | 18 kts | 83° |
| 2026-04-22 04:33 | 33.94774 | -118.40896 | 122 ft | 11 kts | 190° |
| 2026-04-22 04:33 | 33.94736 | -118.40883 | 122 ft | 6 kts | 139° |
| 2026-04-22 04:34 | 33.94703 | -118.40845 | 119 ft | 0 kts | 135° |